Time;durP1;ratioP1;P1;durP2;ratioP2;P2;SDS_P1;SDS_P2;PMS_P1;PMS_P2;Temp;Humidity;BMP_temperature;BMP_pressure;BME280_temperature;BME280_humidity;BME280_pressure;Samples;Min_cycle;Max_cycle;Signal;HPM_P1;HPM_P2
2023/03/13 00:01:23;;;;;;;5.60;4.40;;;;;;;3.24;57.70;100648.20;1479899;88;22666;-81
2023/03/13 00:03:51;;;;;;;7.20;5.03;;;;;;;3.25;57.75;100650.34;1481522;86;21986;-81
2023/03/13 00:06:19;;;;;;;7.60;4.43;;;;;;;3.23;57.63;100650.94;1469441;88;22641;-81
2023/03/13 00:08:46;;;;;;;8.37;4.97;;;;;;;3.24;57.67;100651.30;1466422;88;21681;-80
2023/03/13 00:11:15;;;;;;;9.13;5.10;;;;;;;3.28;57.81;100661.93;1474775;88;23207;-80
2023/03/13 00:13:43;;;;;;;6.87;4.67;;;;;;;3.28;57.81;100661.93;1476121;88;22524;-80
2023/03/13 00:16:14;;;;;;;7.57;5.27;;;;;;;3.26;57.61;100667.27;1481917;88;22824;-81
2023/03/13 00:18:47;;;;;;;7.27;5.23;;;;;;;3.33;57.57;100676.88;1474386;88;21863;-81
2023/03/13 00:21:16;;;;;;;9.93;5.67;;;;;;;3.34;57.50;100675.49;1473331;88;21713;-81
2023/03/13 00:23:44;;;;;;;7.97;4.67;;;;;;;3.30;57.44;100666.61;1473310;88;22854;-81
2023/03/13 00:26:16;;;;;;;10.30;5.00;;;;;;;3.30;57.53;100661.38;1503500;86;21915;-80
2023/03/13 00:28:44;;;;;;;8.17;5.80;;;;;;;3.30;57.53;100661.38;1477512;88;22556;-80
2023/03/13 00:31:19;;;;;;;6.33;4.57;;;;;;;3.34;57.69;100662.88;1474303;88;21720;-80
2023/03/13 00:33:49;;;;;;;7.37;4.83;;;;;;;3.34;57.69;100662.88;1476944;88;21906;-81
2023/03/13 00:36:23;;;;;;;8.67;5.30;;;;;;;3.37;57.52;100661.38;1479922;88;21805;-80
2023/03/13 00:38:52;;;;;;;7.60;4.53;;;;;;;3.32;57.62;100655.12;1476868;88;21832;-80
2023/03/13 00:41:23;;;;;;;7.77;5.47;;;;;;;3.34;57.38;100652.42;1482029;88;22759;-81
2023/03/13 00:43:51;;;;;;;7.93;4.80;;;;;;;3.33;57.52;100645.01;1522198;88;21958;-80
2023/03/13 00:46:21;;;;;;;9.07;4.87;;;;;;;3.33;57.52;100645.01;1473678;88;22699;-81
2023/03/13 00:48:50;;;;;;;7.92;5.83;;;;;;;3.34;57.37;100649.33;1476482;88;21930;-81
2023/03/13 00:51:19;;;;;;;10.07;5.57;;;;;;;3.34;57.43;100641.95;1489063;88;21420;-80
2023/03/13 00:53:47;;;;;;;8.67;5.77;;;;;;;3.31;57.35;100645.59;1474746;88;21993;-79
2023/03/13 00:56:17;;;;;;;7.60;5.47;;;;;;;3.32;57.39;100641.20;1471096;88;21805;-82
2023/03/13 00:58:46;;;;;;;9.03;5.30;;;;;;;3.29;57.33;100636.16;1482290;88;22019;-80
2023/03/13 01:01:27;;;;;;;9.57;5.57;;;;;;;3.25;57.01;100628.98;1474815;88;21759;-81
2023/03/13 01:04:02;;;;;;;10.75;5.35;;;;;;;3.25;57.01;100628.98;1488491;88;22596;-81
2023/03/13 01:06:32;;;;;;;8.33;5.40;;;;;;;3.27;57.27;100625.78;1477508;88;22910;-80
2023/03/13 01:09:01;;;;;;;7.03;4.72;;;;;;;3.28;57.33;100627.48;1480384;88;21796;-80
2023/03/13 01:11:33;;;;;;;8.10;5.83;;;;;;;3.27;57.41;100619.23;1477536;88;21549;-81
2023/03/13 01:14:05;;;;;;;9.73;5.87;;;;;;;3.27;57.43;100621.02;1480922;88;21733;-81
2023/03/13 01:16:34;;;;;;;12.77;6.67;;;;;;;3.29;57.23;100634.86;1481567;88;21859;-81
2023/03/13 01:19:10;;;;;;;9.20;5.27;;;;;;;3.27;57.21;100637.55;1476869;88;21842;-81
2023/03/13 01:21:38;;;;;;;7.83;5.60;;;;;;;3.25;57.02;100645.12;1479343;86;22103;-81
2023/03/13 01:24:06;;;;;;;9.77;5.63;;;;;;;3.26;57.23;100635.05;1474003;88;22613;-82
2023/03/13 01:26:33;;;;;;;8.43;5.77;;;;;;;3.23;57.25;100638.69;1476693;88;21715;-81
2023/03/13 01:29:01;;;;;;;9.63;5.73;;;;;;;3.27;57.47;100635.41;1482631;88;21829;-80
2023/03/13 01:31:33;;;;;;;9.73;5.87;;;;;;;3.28;57.55;100630.53;1479946;88;21683;-80
2023/03/13 01:34:04;;;;;;;9.50;5.63;;;;;;;3.27;57.55;100622.33;1480058;86;21864;-80
2023/03/13 01:36:34;;;;;;;10.70;7.47;;;;;;;3.27;57.55;100622.33;1473308;88;22011;-80
2023/03/13 01:39:01;;;;;;;8.00;5.70;;;;;;;3.26;57.82;100623.28;1480144;88;22589;-81
2023/03/13 01:41:30;;;;;;;8.97;6.00;;;;;;;3.26;57.82;100623.28;1476648;88;22704;-80
2023/03/13 01:43:58;;;;;;;8.93;6.70;;;;;;;3.26;57.98;100620.66;1474411;88;21584;-81
2023/03/13 01:46:28;;;;;;;7.57;5.53;;;;;;;3.28;58.00;100634.46;1468630;88;21799;-81
2023/03/13 01:49:10;;;;;;;12.00;7.03;;;;;;;3.27;58.01;100640.64;1472056;88;21894;-81
2023/03/13 01:52:03;;;;;;;9.17;5.83;;;;;;;3.28;58.05;100648.41;1478266;86;22642;-81
2023/03/13 01:54:38;;;;;;;8.73;5.07;;;;;;;3.27;58.15;100647.18;1475103;88;21930;-80
2023/03/13 01:57:24;;;;;;;8.63;5.17;;;;;;;3.27;58.24;100653.72;1482969;88;21786;-80
2023/03/13 01:59:59;;;;;;;11.13;6.53;;;;;;;3.26;58.37;100662.52;1476733;88;22655;-80
2023/03/13 02:02:28;;;;;;;8.90;6.47;;;;;;;3.26;58.46;100654.66;1475185;88;22950;-80
2023/03/13 02:04:59;;;;;;;8.03;5.53;;;;;;;3.28;58.19;100645.80;1477164;88;21715;-80
2023/03/13 02:07:41;;;;;;;9.20;5.97;;;;;;;3.27;58.28;100643.26;1478669;88;21710;-80
2023/03/13 02:10:11;;;;;;;11.23;6.20;;;;;;;3.25;58.47;100639.89;1463431;88;21856;-80
2023/03/13 02:12:40;;;;;;;9.10;6.37;;;;;;;3.27;58.20;100636.72;1479209;88;21628;-80
2023/03/13 02:15:12;;;;;;;9.10;6.23;;;;;;;3.27;58.17;100615.79;1475709;88;21907;-80
2023/03/13 02:17:41;;;;;;;7.93;5.13;;;;;;;3.30;58.40;100619.52;1477499;88;21716;-80
2023/03/13 02:20:11;;;;;;;8.03;5.67;;;;;;;3.34;58.43;100619.72;1472735;88;22741;-80
2023/03/13 02:22:56;;;;;;;12.07;6.00;;;;;;;3.32;58.31;100618.48;1475280;88;21948;-79
2023/03/13 02:25:34;;;;;;;9.77;6.60;;;;;;;3.34;58.46;100628.88;1480045;88;21929;-80
2023/03/13 02:28:09;;;;;;;7.63;5.57;;;;;;;3.36;58.44;100642.67;1402141;93;21994;-80
2023/03/13 02:30:38;;;;;;;7.63;5.90;;;;;;;3.33;58.12;100644.17;1390895;93;21732;-80
2023/03/13 02:33:06;;;;;;;13.13;6.13;;;;;;;3.36;58.29;100637.44;1399879;93;21949;-79
2023/03/13 02:35:34;;;;;;;13.83;6.80;;;;;;;3.39;58.31;100634.63;1409067;93;22615;-79
2023/03/13 02:38:06;;;;;;;8.30;6.13;;;;;;;3.42;58.31;100637.05;1402152;93;21910;-79
2023/03/13 02:40:44;;;;;;;10.23;6.60;;;;;;;3.42;58.28;100637.05;1386999;93;21876;-80
2023/03/13 02:43:36;;;;;;;10.60;6.37;;;;;;;3.42;58.28;100637.05;1399032;93;21752;-79
2023/03/13 02:46:11;;;;;;;7.97;5.37;;;;;;;3.43;58.43;100633.52;1398665;93;22810;-82
2023/03/13 02:48:42;;;;;;;9.17;5.83;;;;;;;3.38;58.24;100623.80;1396049;93;21895;-82
2023/03/13 02:51:19;;;;;;;;;;;;;;;3.37;58.24;100622.14;1411271;93;21830;-81
2023/03/13 02:53:49;;;;;;;12.37;6.30;;;;;;;3.35;58.44;100609.14;1398820;93;20847;-80
2023/03/13 02:56:21;;;;;;;8.05;5.30;;;;;;;3.34;58.28;100611.87;1388186;93;21883;-80
2023/03/13 02:58:48;;;;;;;7.63;5.00;;;;;;;3.31;58.25;100611.59;1394516;93;21622;-80
2023/03/13 03:01:16;;;;;;;11.40;6.10;;;;;;;3.34;58.16;100613.17;1396292;93;21840;-80
2023/03/13 03:03:43;;;;;;;11.67;7.00;;;;;;;3.34;58.16;100613.17;1395857;93;23585;-80
2023/03/13 03:06:10;;;;;;;8.73;5.13;;;;;;;3.33;58.19;100612.78;1460558;88;21801;-81
2023/03/13 03:08:40;;;;;;;13.03;7.00;;;;;;;3.35;58.21;100613.53;1481416;88;21717;-80
2023/03/13 03:11:07;;;;;;;8.17;6.17;;;;;;;3.37;57.99;100615.59;1469390;86;22146;-81
2023/03/13 03:13:36;;;;;;;9.57;5.70;;;;;;;3.36;57.86;100623.05;1475977;88;21745;-80
2023/03/13 03:16:09;;;;;;;10.70;5.13;;;;;;;3.33;58.01;100624.55;1471646;88;22011;-80
2023/03/13 03:18:37;;;;;;;9.87;6.70;;;;;;;3.36;57.91;100633.05;1468813;88;21700;-80
2023/03/13 03:21:05;;;;;;;9.37;5.10;;;;;;;3.38;57.69;100629.03;1479193;88;21867;-80
2023/03/13 03:23:34;;;;;;;9.00;5.13;;;;;;;3.38;57.69;100629.03;1465629;88;22788;-80
2023/03/13 03:26:03;;;;;;;7.33;5.43;;;;;;;3.40;57.76;100615.40;1469836;88;22719;-80
2023/03/13 03:28:30;;;;;;;9.83;5.93;;;;;;;3.42;57.75;100623.97;1474466;88;21722;-81
2023/03/13 03:31:07;;;;;;;11.03;5.17;;;;;;;3.44;57.70;100621.27;1478944;88;21851;-80
2023/03/13 03:33:35;;;;;;;8.13;5.73;;;;;;;3.46;57.79;100622.02;1477704;88;22040;-79
2023/03/13 03:36:07;;;;;;;9.03;5.87;;;;;;;3.49;57.84;100614.81;1474184;88;21675;-80
2023/03/13 03:38:35;;;;;;;9.03;6.13;;;;;;;3.51;57.83;100615.56;1499738;86;21732;-81
2023/03/13 03:41:02;;;;;;;12.23;6.13;;;;;;;3.52;57.76;100622.47;1471492;88;22783;-80
2023/03/13 03:43:29;;;;;;;9.13;5.40;;;;;;;3.51;57.69;100629.09;1473944;88;21782;-81
2023/03/13 03:45:57;;;;;;;10.57;6.07;;;;;;;3.51;57.69;100650.02;1482712;88;21787;-80
2023/03/13 03:48:24;;;;;;;10.33;5.30;;;;;;;3.46;57.83;100659.49;1487676;88;21887;-80
2023/03/13 03:50:51;;;;;;;8.90;5.83;;;;;;;3.44;57.75;100648.75;1481579;88;21900;-80
2023/03/13 03:53:18;;;;;;;9.27;5.50;;;;;;;3.44;57.75;100648.75;1468495;88;22205;-80
2023/03/13 03:55:46;;;;;;;8.97;5.57;;;;;;;3.48;57.58;100651.53;1486071;88;22174;-80
2023/03/13 03:58:13;;;;;;;11.53;6.60;;;;;;;3.48;57.58;100651.53;1480494;88;21875;-79
2023/03/13 04:00:44;;;;;;;8.13;6.00;;;;;;;3.50;57.66;100658.35;1473002;88;21944;-80
2023/03/13 04:03:12;;;;;;;9.05;5.15;;;;;;;3.52;57.61;100663.03;1471694;88;22690;-80
2023/03/13 04:05:39;;;;;;;10.63;6.30;;;;;;;3.56;57.76;100667.12;1497433;86;21472;-81
2023/03/13 04:08:08;;;;;;;9.57;5.43;;;;;;;3.58;58.05;100671.80;1474238;88;21650;-81
2023/03/13 04:10:36;;;;;;;9.80;5.63;;;;;;;3.58;58.05;100671.80;1483068;88;21859;-80
2023/03/13 04:13:03;;;;;;;10.50;6.03;;;;;;;3.68;58.17;100688.22;1497830;86;21861;-81
2023/03/13 04:15:32;;;;;;;8.77;5.87;;;;;;;3.66;57.53;100696.19;1482149;88;21811;-81
2023/03/13 04:17:59;;;;;;;10.30;5.37;;;;;;;3.66;57.53;100696.19;1479621;88;21899;-81
2023/03/13 04:20:27;;;;;;;9.37;6.10;;;;;;;3.66;57.88;100690.95;1480572;88;22774;-79
2023/03/13 04:22:55;;;;;;;8.37;5.83;;;;;;;3.72;57.90;100691.04;1481907;88;22159;-80
2023/03/13 04:25:23;;;;;;;11.00;5.23;;;;;;;3.73;57.87;100699.25;1474977;88;21879;-80
2023/03/13 04:27:50;;;;;;;7.80;5.47;;;;;;;3.67;57.21;100701.78;1473092;88;21898;-81
2023/03/13 04:30:18;;;;;;;11.53;6.77;;;;;;;3.67;57.21;100701.78;1471643;88;22070;-80
2023/03/13 04:32:45;;;;;;;8.07;5.70;;;;;;;3.64;57.57;100704.59;1476404;88;22985;-80
2023/03/13 04:35:12;;;;;;;9.63;6.80;;;;;;;3.65;57.64;100702.81;1486271;88;21935;-80
2023/03/13 04:37:39;;;;;;;9.97;5.90;;;;;;;3.57;57.44;100693.69;1480725;88;21834;-80
2023/03/13 04:40:09;;;;;;;8.90;5.60;;;;;;;3.57;57.44;100693.69;1473783;88;21995;-80
2023/03/13 04:42:36;;;;;;;9.23;6.17;;;;;;;3.65;57.70;100700.20;1470553;88;21914;-80
2023/03/13 04:45:04;;;;;;;11.60;6.50;;;;;;;3.65;57.70;100700.20;1479623;88;22874;-81
2023/03/13 04:47:31;;;;;;;11.17;6.60;;;;;;;3.68;57.75;100702.63;1483699;88;22367;-81
2023/03/13 04:49:58;;;;;;;13.83;6.83;;;;;;;3.68;58.01;100702.63;1478625;88;22782;-81
2023/03/13 04:52:25;;;;;;;9.33;6.67;;;;;;;3.68;58.01;100702.63;1475757;88;22053;-80
2023/03/13 04:54:52;;;;;;;11.40;7.13;;;;;;;3.60;57.62;100709.19;1477292;88;22876;-81
2023/03/13 04:57:19;;;;;;;12.17;7.20;;;;;;;3.62;57.73;100710.39;1474662;88;21856;-81
2023/03/13 04:59:47;;;;;;;9.63;6.93;;;;;;;3.60;57.69;100713.12;1455668;88;22089;-82
2023/03/13 05:02:14;;;;;;;10.93;6.90;;;;;;;3.56;57.88;100708.99;1474561;88;21869;-81
2023/03/13 05:04:41;;;;;;;10.70;6.87;;;;;;;3.54;57.66;100709.58;1477331;88;22804;-80
2023/03/13 05:07:08;;;;;;;10.57;6.83;;;;;;;3.53;57.63;100718.34;1478067;88;21734;-81
2023/03/13 05:09:35;;;;;;;13.37;6.70;;;;;;;3.53;57.64;100719.66;1454168;88;22674;-79
2023/03/13 05:12:03;;;;;;;11.53;7.03;;;;;;;3.55;57.54;100713.87;1459796;88;21796;-79
2023/03/13 05:14:30;;;;;;;9.77;6.53;;;;;;;3.58;57.84;100720.22;1478776;88;22461;-80
2023/03/13 05:16:57;;;;;;;14.13;8.07;;;;;;;3.58;57.84;100720.22;1473050;88;22814;-80
2023/03/13 05:19:26;;;;;;;13.03;8.47;;;;;;;3.61;57.77;100722.64;1477010;88;21886;-80
2023/03/13 05:21:53;;;;;;;11.27;7.40;;;;;;;3.66;57.91;100722.84;1472713;88;21855;-79
2023/03/13 05:24:20;;;;;;;16.63;10.60;;;;;;;3.64;58.03;100715.07;1496701;86;22766;-80
2023/03/13 05:26:47;;;;;;;18.10;8.20;;;;;;;3.69;58.05;100721.34;1479003;88;21896;-80
2023/03/13 05:29:14;;;;;;;13.37;7.50;;;;;;;3.66;58.25;100712.37;1503336;86;21774;-80
2023/03/13 05:31:42;;;;;;;10.97;7.17;;;;;;;3.70;58.26;100713.84;1484384;88;21970;-81
2023/03/13 05:34:09;;;;;;;11.80;7.80;;;;;;;3.78;58.61;100720.28;1475753;88;21856;-80
2023/03/13 05:36:36;;;;;;;8.23;6.43;;;;;;;3.78;58.61;100720.28;1472193;88;23064;-80
2023/03/13 05:39:03;;;;;;;10.23;7.07;;;;;;;3.75;59.25;100733.56;1464961;88;21855;-80
2023/03/13 05:41:30;;;;;;;11.33;7.07;;;;;;;3.67;59.45;100719.27;1482624;88;22072;-80
2023/03/13 05:43:57;;;;;;;10.47;6.70;;;;;;;3.67;59.45;100719.27;1468150;88;23085;-80
2023/03/13 05:46:24;;;;;;;12.40;7.63;;;;;;;3.67;59.83;100723.20;1485553;88;21854;-79
2023/03/13 05:48:51;;;;;;;13.63;8.50;;;;;;;3.69;60.00;100723.48;1471953;88;22053;-79
2023/03/13 05:51:19;;;;;;;13.70;9.37;;;;;;;3.65;60.33;100722.45;1477183;88;21829;-79
2023/03/13 05:53:46;;;;;;;14.03;8.30;;;;;;;3.65;60.33;100722.45;1482422;88;22941;-80
2023/03/13 05:56:13;;;;;;;11.90;8.40;;;;;;;3.58;61.27;100724.14;1477188;88;21839;-81
2023/03/13 05:58:41;;;;;;;14.43;9.80;;;;;;;3.58;61.27;100724.14;1482616;88;22140;-81
2023/03/13 06:01:12;;;;;;;20.73;9.63;;;;;;;3.63;61.43;100732.20;1471283;88;22232;-81
2023/03/13 06:03:39;;;;;;;12.85;9.05;;;;;;;3.64;61.18;100733.86;1470778;88;21930;-81
2023/03/13 06:06:06;;;;;;;13.90;9.03;;;;;;;3.62;61.13;100731.33;1473901;88;21545;-82
2023/03/13 06:08:34;;;;;;;14.70;9.13;;;;;;;3.51;61.33;100722.86;1481673;88;22339;-82
2023/03/13 06:11:02;;;;;;;16.67;9.07;;;;;;;3.55;61.53;100730.05;1484712;88;22133;-80
2023/03/13 06:13:30;;;;;;;14.00;10.03;;;;;;;3.54;61.60;100729.20;1482230;88;21898;-80
2023/03/13 06:15:58;;;;;;;12.60;8.80;;;;;;;3.49;62.11;100731.73;1477737;88;21968;-80
2023/03/13 06:18:26;;;;;;;16.60;9.57;;;;;;;3.54;61.95;100734.88;1479024;88;21738;-82
2023/03/13 06:20:59;;;;;;;17.27;8.73;;;;;;;3.45;61.57;100731.06;1475240;88;22485;-80
2023/03/13 06:23:27;;;;;;;16.30;8.73;;;;;;;3.45;61.57;100731.06;1473980;88;21868;-80
2023/03/13 06:25:55;;;;;;;13.50;8.87;;;;;;;3.51;61.68;100742.92;1482159;88;22071;-81
2023/03/13 06:28:22;;;;;;;13.60;7.57;;;;;;;3.55;61.65;100743.97;1473757;88;21943;-80
2023/03/13 06:30:49;;;;;;;12.87;8.40;;;;;;;3.54;61.60;100741.42;1459901;88;21877;-80
2023/03/13 06:33:17;;;;;;;15.07;8.87;;;;;;;3.52;61.79;100748.08;1477979;88;21915;-79
2023/03/13 06:35:44;;;;;;;14.50;8.50;;;;;;;3.52;61.79;100748.08;1477146;87;22047;-82
2023/03/13 06:38:12;;;;;;;18.30;8.17;;;;;;;3.52;61.78;100757.23;1473326;88;21758;-82
2023/03/13 06:40:39;;;;;;;13.47;9.40;;;;;;;3.54;61.72;100765.84;1485201;88;22086;-82
2023/03/13 06:43:06;;;;;;;15.70;9.57;;;;;;;3.54;61.72;100765.84;1476323;88;22077;-82
2023/03/13 06:45:35;;;;;;;14.37;8.67;;;;;;;3.52;62.03;100770.33;1474646;88;22922;-83
2023/03/13 06:48:04;;;;;;;10.90;8.40;;;;;;;3.51;61.91;100769.09;1474496;88;22135;-83
2023/03/13 06:50:31;;;;;;;13.67;7.43;;;;;;;3.51;61.91;100769.09;1475527;88;21876;-82
2023/03/13 06:52:58;;;;;;;11.93;7.53;;;;;;;3.58;61.94;100767.33;1483770;88;21968;-82
2023/03/13 06:55:25;;;;;;;15.60;8.97;;;;;;;3.62;61.71;100770.59;1474478;88;21780;-83
2023/03/13 06:57:54;;;;;;;14.70;9.50;;;;;;;3.62;61.71;100770.59;1470120;88;23053;-83
2023/03/13 07:00:23;;;;;;;12.93;8.10;;;;;;;3.62;61.86;100777.14;1476686;88;21839;-84
2023/03/13 07:02:50;;;;;;;12.10;8.10;;;;;;;3.76;61.27;100781.52;1478123;88;23419;-80
2023/03/13 07:05:18;;;;;;;15.50;9.67;;;;;;;3.77;61.17;100776.65;1472087;88;22095;-80
2023/03/13 07:07:47;;;;;;;13.17;7.53;;;;;;;3.77;61.17;100776.65;1478032;88;22098;-80
2023/03/13 07:10:14;;;;;;;15.73;9.17;;;;;;;4.02;60.99;100787.27;1478109;88;21877;-79
2023/03/13 07:12:41;;;;;;;15.67;9.40;;;;;;;4.02;60.99;100787.27;1470423;88;22123;-80
2023/03/13 07:15:09;;;;;;;16.97;9.37;;;;;;;4.17;60.12;100778.07;1475148;88;22157;-81
2023/03/13 07:17:37;;;;;;;18.17;11.17;;;;;;;4.17;60.12;100778.07;1481540;88;21913;-81
2023/03/13 07:20:08;;;;;;;16.23;9.07;;;;;;;4.37;59.67;100781.56;1462965;88;22349;-81
2023/03/13 07:22:34;;;;;;;15.83;8.38;;;;;;;4.37;59.67;100781.56;1469903;86;22142;-81
2023/03/13 07:25:05;;;;;;;17.00;8.63;;;;;;;4.47;59.79;100789.69;1467728;88;22344;-80
2023/03/13 07:27:33;;;;;;;14.43;8.68;;;;;;;4.47;58.64;100789.21;1476583;88;22120;-81
2023/03/13 07:30:00;;;;;;;14.23;9.10;;;;;;;4.53;58.59;100786.19;1478055;88;21434;-81
2023/03/13 07:32:32;;;;;;;14.37;9.13;;;;;;;4.61;58.51;100792.73;1480200;88;22267;-82
2023/03/13 07:35:02;;;;;;;13.37;8.57;;;;;;;4.68;58.45;100790.05;1474769;88;22142;-81
2023/03/13 07:37:29;;;;;;;14.43;8.67;;;;;;;4.71;57.80;100787.23;1476745;88;22978;-83
2023/03/13 07:39:56;;;;;;;12.90;9.27;;;;;;;4.66;56.40;100773.13;1480101;88;22068;-82
2023/03/13 07:42:23;;;;;;;12.10;8.37;;;;;;;4.71;56.26;100770.19;1477956;88;22986;-81
2023/03/13 07:44:52;;;;;;;13.23;8.50;;;;;;;4.72;55.90;100773.20;1471158;88;22051;-81
2023/03/13 07:47:20;;;;;;;16.17;9.43;;;;;;;4.72;55.90;100773.20;1483650;88;21420;-79
2023/03/13 07:49:47;;;;;;;14.57;8.80;;;;;;;4.74;55.40;100775.23;1484418;88;22090;-81
2023/03/13 07:52:14;;;;;;;14.63;9.23;;;;;;;4.77;55.64;100779.44;1472770;88;22383;-79
2023/03/13 07:54:41;;;;;;;15.00;9.37;;;;;;;4.82;55.80;100773.42;1478982;88;23141;-79
2023/03/13 07:57:08;;;;;;;13.57;8.80;;;;;;;4.81;55.69;100766.50;1472745;88;22238;-79
2023/03/13 07:59:35;;;;;;;13.53;9.27;;;;;;;4.80;54.64;100761.70;1475859;88;22128;-80
2023/03/13 08:02:03;;;;;;;13.37;7.83;;;;;;;4.95;55.47;100759.38;1473888;88;21975;-78
2023/03/13 08:04:31;;;;;;;13.03;8.23;;;;;;;4.96;55.26;100754.97;1470762;88;21375;-79
2023/03/13 08:06:58;;;;;;;14.70;9.57;;;;;;;5.01;54.74;100755.98;1479071;88;21494;-81
2023/03/13 08:09:26;;;;;;;12.63;7.63;;;;;;;5.14;54.85;100763.38;1476440;88;21457;-77
2023/03/13 08:11:53;;;;;;;13.43;8.47;;;;;;;5.14;54.85;100763.38;1471753;88;21777;-78
2023/03/13 08:14:20;;;;;;;13.70;8.70;;;;;;;5.20;54.07;100758.54;1477926;88;21464;-78
2023/03/13 08:16:47;;;;;;;12.40;8.13;;;;;;;5.30;54.17;100760.08;1476620;88;21628;-78
2023/03/13 08:19:14;;;;;;;12.53;8.97;;;;;;;5.37;53.75;100760.48;1479354;88;21361;-79
2023/03/13 08:21:41;;;;;;;15.23;9.27;;;;;;;5.51;53.16;100760.84;1473918;88;21390;-78
2023/03/13 08:24:11;;;;;;;15.53;8.60;;;;;;;5.58;52.57;100762.08;1476591;88;21530;-79
2023/03/13 08:26:41;;;;;;;13.08;8.73;;;;;;;5.72;53.22;100759.33;1446838;88;21361;-79
2023/03/13 08:29:12;;;;;;;13.17;9.67;;;;;;;5.82;52.04;100757.74;1478275;88;22867;-79
2023/03/13 08:31:46;;;;;;;;;;;;;;;5.94;52.13;100759.17;1479059;88;21471;-79
2023/03/13 08:34:15;;;;;;;13.43;9.43;;;;;;;5.85;50.86;100752.27;1401720;88;20335;-79
2023/03/13 08:36:43;;;;;;;19.87;10.70;;;;;;;5.91;51.50;100756.73;1398225;88;21479;-78
2023/03/13 08:39:15;;;;;;;15.10;9.67;;;;;;;5.98;51.40;100755.36;1400086;88;21288;-79
2023/03/13 08:41:42;;;;;;;13.97;9.63;;;;;;;6.07;51.21;100757.32;1403244;86;22182;-79
2023/03/13 08:44:13;;;;;;;19.43;12.67;;;;;;;6.22;51.08;100750.97;1400142;88;21265;-79
2023/03/13 08:46:42;;;;;;;18.35;11.95;;;;;;;6.32;50.56;100756.39;1397183;89;21405;-79
2023/03/13 08:49:11;;;;;;;15.43;10.40;;;;;;;6.41;50.54;100750.45;1408497;88;22390;-79
2023/03/13 08:51:39;;;;;;;15.80;9.77;;;;;;;6.49;50.02;100752.52;1400001;88;21340;-78
2023/03/13 08:54:06;;;;;;;19.77;8.13;;;;;;;6.57;49.57;100752.80;1400582;88;21487;-80
2023/03/13 08:56:33;;;;;;;14.77;8.43;;;;;;;6.58;49.06;100736.05;1406519;88;22240;-80
2023/03/13 08:59:04;;;;;;;12.83;8.73;;;;;;;6.64;48.87;100734.28;1400183;88;21324;-80
2023/03/13 09:01:34;;;;;;;14.50;7.60;;;;;;;6.74;49.06;100733.13;1397351;88;21458;-81
2023/03/13 09:04:03;;;;;;;10.72;7.58;;;;;;;6.66;48.14;100724.49;1402997;88;21449;-81
2023/03/13 09:06:35;;;;;;;15.57;8.40;;;;;;;6.79;47.93;100725.73;1404274;88;21310;-80
2023/03/13 09:09:04;;;;;;;12.60;8.73;;;;;;;6.79;47.99;100728.37;1561689;88;21192;-81
2023/03/13 09:11:32;;;;;;;11.77;7.60;;;;;;;6.72;47.76;100725.34;1404416;88;21669;-81
2023/03/13 09:13:59;;;;;;;14.53;8.67;;;;;;;6.76;48.27;100722.86;1400036;88;21288;-80
2023/03/13 09:16:29;;;;;;;17.90;10.17;;;;;;;6.85;47.00;100729.67;1421357;86;21353;-80
2023/03/13 09:18:57;;;;;;;21.70;12.93;;;;;;;6.99;47.27;100724.20;1403544;88;21531;-80
2023/03/13 09:21:31;;;;;;;14.07;9.03;;;;;;;7.16;46.23;100726.41;1399480;88;21578;-80
2023/03/13 09:23:59;;;;;;;12.43;8.30;;;;;;;7.25;45.52;100727.48;1396294;88;21265;-79
2023/03/13 09:26:27;;;;;;;17.30;10.10;;;;;;;7.28;45.59;100730.33;1409796;88;22220;-80
2023/03/13 09:28:55;;;;;;;15.53;9.03;;;;;;;7.49;46.41;100733.94;1399441;88;22050;-81
2023/03/13 09:31:26;;;;;;;12.30;8.03;;;;;;;7.59;46.34;100726.98;1401029;88;21280;-80
2023/03/13 09:33:54;;;;;;;12.20;8.40;;;;;;;7.58;45.83;100729.27;1402978;88;21288;-81
2023/03/13 09:36:22;;;;;;;13.13;7.77;;;;;;;7.71;45.95;100725.65;1400087;88;22530;-80
2023/03/13 09:38:53;;;;;;;11.47;7.17;;;;;;;7.78;45.28;100726.86;1399030;88;21385;-81
2023/03/13 09:41:53;;;;;;;14.40;8.80;;;;;;;7.65;44.98;100722.56;1468041;88;21398;-81
2023/03/13 09:44:33;;;;;;;13.87;7.70;;;;;;;7.74;44.55;100717.50;1476078;88;21365;-81
2023/03/13 09:47:29;;;;;;;17.17;7.47;;;;;;;7.73;44.78;100717.98;1471823;88;21727;-79
2023/03/13 09:50:04;;;;;;;14.20;7.50;;;;;;;7.68;44.19;100714.42;1474127;88;21486;-81
2023/03/13 09:52:36;;;;;;;11.60;7.70;;;;;;;7.60;43.72;100719.94;1482662;88;21457;-81
2023/03/13 09:55:19;;;;;;;12.07;8.60;;;;;;;7.64;44.55;100723.50;1482950;88;21420;-81
2023/03/13 09:58:01;;;;;;;13.57;8.63;;;;;;;7.67;44.73;100718.48;1476279;88;21428;-82
2023/03/13 10:00:40;;;;;;;12.93;7.33;;;;;;;7.81;44.22;100723.97;1468008;88;21399;-82
2023/03/13 10:03:36;;;;;;;13.43;8.73;;;;;;;7.73;43.13;100709.25;1480843;88;21532;-81
2023/03/13 10:06:14;;;;;;;15.20;8.17;;;;;;;7.68;43.10;100711.78;1478437;88;21590;-82
2023/03/13 10:08:41;;;;;;;11.03;7.20;;;;;;;7.73;43.11;100700.86;1479406;88;21471;-81
2023/03/13 10:11:20;;;;;;;12.60;6.90;;;;;;;7.76;42.90;100710.32;1480953;88;22397;-81
2023/03/13 10:14:27;;;;;;;13.67;6.90;;;;;;;7.80;43.24;100703.86;1470811;86;21549;-81
2023/03/13 10:17:08;;;;;;;10.87;7.47;;;;;;;7.97;43.95;100692.80;1477430;88;21449;-82
2023/03/13 10:19:46;;;;;;;12.37;7.80;;;;;;;7.97;43.78;100705.11;1478337;88;21397;-82
2023/03/13 10:22:18;;;;;;;15.50;8.63;;;;;;;8.08;44.30;100703.28;1468085;86;21435;-82
2023/03/13 10:24:59;;;;;;;11.93;7.60;;;;;;;8.27;43.43;100700.48;1478492;88;21391;-82
2023/03/13 10:27:26;;;;;;;14.43;6.63;;;;;;;8.30;43.29;100702.86;1479514;88;21473;-81
2023/03/13 10:29:54;;;;;;;21.47;8.97;;;;;;;8.27;42.83;100696.52;1479380;88;22308;-81
2023/03/13 10:32:21;;;;;;;38.20;8.83;;;;;;;8.24;42.61;100700.24;1474282;88;21347;-82
2023/03/13 10:35:01;;;;;;;11.43;7.60;;;;;;;8.25;43.11;100714.26;1487115;88;21546;-82
2023/03/13 10:37:42;;;;;;;11.22;7.62;;;;;;;8.36;43.41;100703.67;1477981;88;21369;-81
2023/03/13 10:40:24;;;;;;;12.88;7.83;;;;;;;8.36;43.41;100703.67;1499635;86;21456;-79
2023/03/13 10:42:54;;;;;;;24.90;8.40;;;;;;;8.52;43.41;100694.88;1478891;88;21390;-79
2023/03/13 10:45:22;;;;;;;11.22;7.47;;;;;;;8.72;43.70;100690.58;1480354;88;21479;-79
2023/03/13 10:48:00;;;;;;;13.60;7.27;;;;;;;8.91;42.95;100688.52;1476470;88;21367;-80
2023/03/13 10:50:32;;;;;;;10.73;6.43;;;;;;;9.18;43.54;100684.02;1483026;88;22588;-79
2023/03/13 10:53:27;;;;;;;10.57;6.47;;;;;;;9.24;42.08;100683.48;1476680;88;21442;-80
2023/03/13 10:56:20;;;;;;;13.33;6.73;;;;;;;9.48;42.74;100683.14;1481759;88;21472;-80
2023/03/13 10:58:51;;;;;;;10.07;6.03;;;;;;;9.94;42.78;100672.47;1483409;88;21924;-80
2023/03/13 11:01:33;;;;;;;11.97;7.03;;;;;;;10.25;41.43;100673.67;1485803;88;21464;-80
2023/03/13 11:04:01;;;;;;;7.27;6.00;;;;;;;10.31;40.30;100661.23;1470104;88;21538;-80
2023/03/13 11:06:32;;;;;;;8.80;6.05;;;;;;;10.48;40.48;100664.16;1481790;88;21362;-81
2023/03/13 11:09:16;;;;;;;;;;;;;;;10.53;40.19;100653.96;1482869;88;22344;-83
2023/03/13 11:11:56;;;;;;;8.90;5.67;;;;;;;10.67;40.40;100651.36;1474767;88;20383;-82
2023/03/13 11:14:25;;;;;;;11.22;7.95;;;;;;;10.76;40.54;100654.01;1475441;88;21405;-82
2023/03/13 11:17:04;;;;;;;12.60;7.83;;;;;;;10.71;40.39;100657.56;1474135;88;21428;-82
2023/03/13 11:19:55;;;;;;;14.00;7.13;;;;;;;10.62;41.14;100642.55;1478096;88;22440;-82
2023/03/13 11:22:36;;;;;;;9.67;7.50;;;;;;;10.64;41.60;100639.74;1472471;88;21413;-81
2023/03/13 11:25:24;;;;;;;13.63;6.87;;;;;;;10.60;41.92;100632.09;1482906;88;21420;-81
2023/03/13 11:28:20;;;;;;;9.43;6.70;;;;;;;10.67;41.44;100622.25;1474282;88;21472;-81
2023/03/13 11:31:14;;;;;;;11.30;6.10;;;;;;;10.66;41.32;100614.80;1477758;88;21586;-82
2023/03/13 11:33:57;;;;;;;12.67;6.03;;;;;;;10.76;40.83;100618.27;1473837;88;21464;-82
2023/03/13 11:36:42;;;;;;;10.83;7.13;;;;;;;10.78;41.43;100603.55;1473424;88;21493;-82
2023/03/13 11:39:40;;;;;;;11.13;7.40;;;;;;;10.90;40.82;100597.58;1475778;88;21603;-82
2023/03/13 11:42:41;;;;;;;13.30;5.73;;;;;;;10.99;40.34;100584.78;1477046;88;21398;-82
2023/03/13 11:45:22;;;;;;;8.20;6.00;;;;;;;11.50;41.37;100584.71;1420010;92;21480;-81